createdAt,value
2023-05-04T00:01:05.614Z,101625.00
2023-05-04T00:03:32.697Z,101626.53
2023-05-04T00:05:59.499Z,101624.88
2023-05-04T00:08:26.418Z,101621.56
2023-05-04T00:10:54.734Z,101620.84
2023-05-04T00:13:21.925Z,101615.72
2023-05-04T00:15:48.978Z,101616.84
2023-05-04T00:18:15.793Z,101616.00
2023-05-04T00:20:42.579Z,101601.28
2023-05-04T00:23:09.404Z,101594.50
2023-05-04T00:25:36.282Z,101594.34
2023-05-04T00:28:03.092Z,101588.94
2023-05-04T00:30:29.929Z,101597.94
2023-05-04T00:32:56.782Z,101593.78
2023-05-04T00:35:23.542Z,101586.19
2023-05-04T00:37:50.350Z,101584.63
2023-05-04T00:40:17.232Z,101587.81
2023-05-04T00:42:44.050Z,101583.25
2023-05-04T00:45:10.987Z,101566.34
2023-05-04T00:47:37.927Z,101569.38
2023-05-04T00:50:05.588Z,101565.25
2023-05-04T00:52:32.740Z,101557.59
2023-05-04T00:55:00.890Z,101564.13
2023-05-04T00:57:27.789Z,101549.28
2023-05-04T00:59:54.815Z,101551.09
2023-05-04T01:02:22.053Z,101545.84
2023-05-04T01:04:52.809Z,101542.38
2023-05-04T01:07:27.125Z,101544.00
2023-05-04T01:09:59.349Z,101535.16
2023-05-04T01:12:30.493Z,101541.38
2023-05-04T01:14:57.451Z,101532.94
2023-05-04T01:17:24.307Z,101523.25
2023-05-04T01:19:54.312Z,101519.09
2023-05-04T01:22:22.140Z,101519.91
2023-05-04T01:24:49.211Z,101512.84
2023-05-04T01:27:23.542Z,101511.31
2023-05-04T01:29:54.298Z,101513.00
2023-05-04T01:32:21.960Z,101503.69
2023-05-04T01:34:49.081Z,101504.41
2023-05-04T01:37:16.407Z,101502.47
2023-05-04T01:39:43.336Z,101501.47
2023-05-04T01:42:10.170Z,101489.00
2023-05-04T01:44:37.046Z,101492.63
2023-05-04T01:47:03.942Z,101491.53
2023-05-04T01:49:30.816Z,101485.13
2023-05-04T01:51:57.712Z,101483.34
2023-05-04T01:54:24.510Z,101483.88
2023-05-04T01:56:51.316Z,101485.41
2023-05-04T01:59:21.215Z,101481.25
2023-05-04T02:01:48.152Z,101475.84
2023-05-04T02:04:14.992Z,101484.59
2023-05-04T02:06:41.852Z,101477.38
2023-05-04T02:09:08.678Z,101473.22
2023-05-04T02:11:35.822Z,101470.72
2023-05-04T02:14:02.687Z,101475.19
2023-05-04T02:16:29.556Z,101463.81
2023-05-04T02:18:56.650Z,101459.38
2023-05-04T02:21:23.602Z,101454.91
2023-05-04T02:23:50.622Z,101455.91
2023-05-04T02:26:17.457Z,101460.75
2023-05-04T02:28:44.412Z,101454.78
2023-05-04T02:31:11.276Z,101459.50
2023-05-04T02:33:38.095Z,101455.75
2023-05-04T02:36:05.394Z,101450.66
2023-05-04T02:38:32.187Z,101455.06
2023-05-04T02:40:58.981Z,101443.44
2023-05-04T02:43:25.757Z,101450.34
2023-05-04T02:45:52.675Z,101435.81
2023-05-04T02:48:19.650Z,101425.72
2023-05-04T02:50:46.818Z,101420.03
2023-05-04T02:53:13.652Z,101412.13
2023-05-04T02:55:40.658Z,101417.25
2023-05-04T02:58:07.772Z,101415.03
2023-05-04T03:00:34.711Z,101410.44
2023-05-04T03:03:01.936Z,101412.25
2023-05-04T03:05:29.213Z,101422.13
2023-05-04T03:07:57.238Z,101416.69
2023-05-04T03:10:24.148Z,101411.00
2023-05-04T03:12:51.012Z,101406.13
2023-05-04T03:15:18.027Z,101398.41
2023-05-04T03:17:45.090Z,101407.25
2023-05-04T03:20:13.401Z,101396.03
2023-05-04T03:22:40.193Z,101388.13
2023-05-04T03:25:08.045Z,101394.22
2023-05-04T03:27:34.827Z,101392.44
2023-05-04T03:30:01.662Z,101387.03
2023-05-04T03:32:28.554Z,101385.38
2023-05-04T03:34:55.468Z,101389.66
2023-05-04T03:37:22.290Z,101384.66
2023-05-04T03:39:49.070Z,101386.34
2023-05-04T03:42:15.845Z,101379.56
2023-05-04T03:44:42.730Z,101377.59
2023-05-04T03:47:09.550Z,101370.13
2023-05-04T03:49:36.423Z,101362.66
2023-05-04T03:52:03.283Z,101363.50
2023-05-04T03:54:30.129Z,101359.06
2023-05-04T03:56:56.954Z,101352.97
2023-05-04T03:59:23.714Z,101352.25
2023-05-04T04:01:50.810Z,101346.88
2023-05-04T04:04:17.727Z,101343.41
2023-05-04T04:06:45.230Z,101338.84
2023-05-04T04:09:12.024Z,101336.63
2023-05-04T04:11:38.800Z,101334.97
2023-05-04T04:14:05.940Z,101331.50
2023-05-04T04:16:32.771Z,101329.00
2023-05-04T04:18:59.663Z,101332.34
2023-05-04T04:21:26.740Z,101339.25
2023-05-04T04:23:53.552Z,101332.03
2023-05-04T04:26:21.069Z,101332.75
2023-05-04T04:28:50.829Z,101329.97
2023-05-04T04:31:19.164Z,101320.94
2023-05-04T04:33:47.623Z,101318.44
2023-05-04T04:36:17.054Z,101319.84
2023-05-04T04:38:44.433Z,101319.84
2023-05-04T04:41:11.302Z,101320.50
2023-05-04T04:43:38.197Z,101329.38
2023-05-04T04:46:05.215Z,101328.28
2023-05-04T04:48:32.031Z,101321.47
2023-05-04T04:50:59.390Z,101320.81
2023-05-04T04:53:26.310Z,101318.00
2023-05-04T04:55:54.360Z,101323.84
2023-05-04T04:58:21.273Z,101318.41
2023-05-04T05:00:48.066Z,101318.28
2023-05-04T05:03:15.048Z,101314.25
2023-05-04T05:05:41.928Z,101312.44
2023-05-04T05:08:08.705Z,101305.22
2023-05-04T05:10:38.684Z,101306.44
2023-05-04T05:13:06.791Z,101309.59
2023-05-04T05:15:33.649Z,101312.91
2023-05-04T05:18:00.703Z,101310.44
2023-05-04T05:20:27.857Z,101308.19
2023-05-04T05:22:54.767Z,101311.34
2023-05-04T05:25:21.631Z,101292.47
2023-05-04T05:27:48.550Z,101302.56
2023-05-04T05:30:15.573Z,101292.59
2023-05-04T05:32:42.387Z,101290.16
2023-05-04T05:35:09.827Z,101276.53
2023-05-04T05:37:36.717Z,101285.28
2023-05-04T05:40:08.200Z,101281.09
2023-05-04T05:42:38.437Z,101278.84
2023-05-04T05:45:05.647Z,101281.19
2023-05-04T05:47:32.446Z,101275.34
2023-05-04T05:49:59.396Z,101275.19
2023-05-04T05:52:26.266Z,101264.72
2023-05-04T05:54:53.069Z,101257.72
2023-05-04T05:57:21.004Z,101256.13
2023-05-04T05:59:47.885Z,101249.41
2023-05-04T06:02:15.257Z,101248.28
2023-05-04T06:04:42.538Z,101244.50
2023-05-04T06:07:09.499Z,101238.63
2023-05-04T06:09:36.881Z,101231.72
2023-05-04T06:12:05.245Z,101242.03
2023-05-04T06:14:32.067Z,101233.38
2023-05-04T06:16:59.111Z,101235.75
2023-05-04T06:19:26.039Z,101226.56
2023-05-04T06:21:53.426Z,101224.84
2023-05-04T06:24:22.025Z,101218.47
2023-05-04T06:26:48.921Z,101230.38
2023-05-04T06:29:15.935Z,101222.09
2023-05-04T06:31:43.727Z,101213.28
2023-05-04T06:34:12.022Z,101209.19
2023-05-04T06:36:39.286Z,101209.41
2023-05-04T06:39:06.181Z,101204.81
2023-05-04T06:41:33.198Z,101193.88
2023-05-04T06:44:01.094Z,101187.13
2023-05-04T06:46:28.239Z,101183.50
2023-05-04T06:48:55.376Z,101169.41
2023-05-04T06:51:22.510Z,101177.84
2023-05-04T06:53:49.599Z,101174.47
2023-05-04T06:56:17.391Z,101164.88
2023-05-04T06:58:44.401Z,101164.03
2023-05-04T07:01:12.398Z,101167.38
2023-05-04T07:03:50.711Z,101167.38
2023-05-04T07:06:17.803Z,101166.91
2023-05-04T07:08:45.148Z,101155.78
2023-05-04T07:11:12.408Z,101159.22
2023-05-04T07:13:39.929Z,101148.09
2023-05-04T07:16:08.126Z,101157.66
2023-05-04T07:18:35.360Z,101153.44
2023-05-04T07:21:21.687Z,101139.88
2023-05-04T07:23:49.972Z,101117.44
2023-05-04T07:26:17.338Z,101120.28
2023-05-04T07:28:44.520Z,101118.97
2023-05-04T07:31:13.317Z,101127.25
2023-05-04T07:33:40.838Z,101137.25
2023-05-04T07:36:08.501Z,101141.13
2023-05-04T07:38:35.889Z,101130.56
2023-05-04T07:41:02.936Z,101145.31
2023-05-04T07:43:29.890Z,101142.84
2023-05-04T07:45:57.082Z,101142.53
2023-05-04T07:48:26.159Z,101142.34
2023-05-04T07:50:54.296Z,101146.19
2023-05-04T07:53:21.765Z,101138.72
2023-05-04T07:55:48.910Z,101149.13
2023-05-04T07:58:17.014Z,101159.00
2023-05-04T08:00:46.656Z,101154.72
2023-05-04T08:03:13.753Z,101149.19
2023-05-04T08:05:40.960Z,101131.00
2023-05-04T08:08:08.945Z,101132.69
2023-05-04T08:10:39.044Z,101141.22
2023-05-04T08:13:06.177Z,101134.28
2023-05-04T08:15:33.464Z,101144.53
2023-05-04T08:18:00.498Z,101142.97
2023-05-04T08:20:29.597Z,101141.25
2023-05-04T08:22:56.647Z,101149.94
2023-05-04T08:25:23.577Z,101146.81
2023-05-04T08:27:51.789Z,101149.72
2023-05-04T08:30:19.000Z,101145.34
2023-05-04T08:32:46.000Z,101139.94
2023-05-04T08:35:13.679Z,101142.47
2023-05-04T08:37:40.760Z,101150.63
2023-05-04T08:40:08.888Z,101158.34
2023-05-04T08:42:35.821Z,101152.66
2023-05-04T08:45:03.016Z,101142.59
2023-05-04T08:47:30.178Z,101140.66
2023-05-04T08:49:57.298Z,101134.91
2023-05-04T08:52:25.841Z,101128.22
2023-05-04T08:54:55.794Z,101119.63
2023-05-04T08:57:24.504Z,101097.94
2023-05-04T08:59:58.338Z,101092.41
2023-05-04T09:02:25.589Z,101096.44
2023-05-04T09:04:53.252Z,101090.84
2023-05-04T09:07:21.213Z,101092.03
2023-05-04T09:09:58.081Z,101077.81
2023-05-04T09:12:27.221Z,101072.25
2023-05-04T09:14:54.065Z,101052.97
2023-05-04T09:17:26.145Z,101049.00
2023-05-04T09:20:00.707Z,101053.22
2023-05-04T09:22:28.902Z,101065.94
2023-05-04T09:25:06.900Z,101050.47
2023-05-04T09:27:34.298Z,101048.19
2023-05-04T09:30:01.760Z,101053.91
2023-05-04T09:32:29.216Z,101044.66
2023-05-04T09:34:59.316Z,101029.72
2023-05-04T09:37:26.387Z,101041.22
2023-05-04T09:40:00.605Z,101045.16
2023-05-04T09:42:29.202Z,101032.47
2023-05-04T09:45:05.194Z,101016.19
2023-05-04T09:47:40.759Z,101025.63
2023-05-04T09:50:12.556Z,101026.47
2023-05-04T09:52:40.946Z,101028.88
2023-05-04T09:55:08.500Z,101041.78
2023-05-04T09:57:36.937Z,101040.00
2023-05-04T10:00:10.658Z,101028.97
2023-05-04T10:02:38.565Z,101022.47
2023-05-04T10:05:07.488Z,101026.94
2023-05-04T10:07:35.306Z,101013.66
2023-05-04T10:10:02.273Z,101011.81
2023-05-04T10:12:29.451Z,101012.06
2023-05-04T10:14:57.496Z,101000.47
2023-05-04T10:17:31.446Z,101003.38
2023-05-04T10:19:58.858Z,100999.72
2023-05-04T10:22:29.329Z,100994.78
2023-05-04T10:25:06.475Z,100992.34
2023-05-04T10:27:39.914Z,100982.97
2023-05-04T10:30:08.964Z,100975.59
2023-05-04T10:32:40.243Z,100967.81
2023-05-04T10:35:08.391Z,100959.66
2023-05-04T10:37:38.059Z,100959.47
2023-05-04T10:40:16.142Z,100963.13
2023-05-04T10:42:44.065Z,100957.81
2023-05-04T10:45:11.411Z,100956.38
2023-05-04T10:47:41.210Z,100963.38
2023-05-04T10:50:38.366Z,100960.94
2023-05-04T10:53:05.530Z,100947.63
2023-05-04T10:55:39.453Z,100944.34
2023-05-04T10:58:06.624Z,100939.44
2023-05-04T11:00:42.493Z,100935.94
2023-05-04T11:03:12.324Z,100928.97
2023-05-04T11:05:43.871Z,100932.69
2023-05-04T11:08:19.863Z,100933.06
2023-05-04T11:10:49.786Z,100944.16
2023-05-04T11:13:17.317Z,100941.50
2023-05-04T11:15:46.173Z,100950.31
2023-05-04T11:18:13.371Z,100938.00
2023-05-04T11:20:40.911Z,100937.19
2023-05-04T11:23:10.926Z,100939.84
2023-05-04T11:25:38.445Z,100929.16
2023-05-04T11:28:05.732Z,100922.63
2023-05-04T11:30:34.707Z,100906.00
2023-05-04T11:33:03.213Z,100904.56
2023-05-04T11:35:30.626Z,100894.31
2023-05-04T11:37:57.740Z,100886.31
2023-05-04T11:40:26.017Z,100876.91
2023-05-04T11:42:56.141Z,100879.34
2023-05-04T11:45:25.376Z,100894.31
2023-05-04T11:47:53.129Z,100875.25
2023-05-04T11:50:21.280Z,100879.34
2023-05-04T11:52:49.405Z,100890.66
2023-05-04T11:55:25.865Z,100900.06
2023-05-04T11:58:00.919Z,100885.69
2023-05-04T12:00:36.414Z,100869.50
2023-05-04T12:03:04.061Z,100867.22
2023-05-04T12:05:32.185Z,100862.72
2023-05-04T12:07:59.306Z,100850.38
2023-05-04T12:10:27.466Z,100844.41
2023-05-04T12:12:54.804Z,100846.84
2023-05-04T12:15:30.482Z,100853.00
2023-05-04T12:17:58.474Z,100858.31
2023-05-04T12:20:29.314Z,100834.53
2023-05-04T12:22:56.768Z,100813.84
2023-05-04T12:25:24.366Z,100805.25
2023-05-04T12:27:51.957Z,100808.56
2023-05-04T12:30:19.138Z,100829.88
2023-05-04T12:32:46.495Z,100829.47
2023-05-04T12:35:13.594Z,100843.22
2023-05-04T12:37:40.610Z,100849.56
2023-05-04T12:40:21.100Z,100851.38
2023-05-04T12:42:55.244Z,100856.28
2023-05-04T12:45:23.051Z,100871.06
2023-05-04T12:47:50.246Z,100880.31
2023-05-04T12:50:17.689Z,100898.38
2023-05-04T12:52:45.035Z,100912.31
2023-05-04T12:55:12.145Z,100915.81
2023-05-04T12:57:40.041Z,100911.94
2023-05-04T13:00:10.410Z,100905.19
2023-05-04T13:02:38.203Z,100899.41
2023-05-04T13:05:05.959Z,100900.63
2023-05-04T13:07:35.303Z,100884.03
2023-05-04T13:10:11.620Z,100866.63
2023-05-04T13:12:38.920Z,100840.56
2023-05-04T13:15:07.036Z,100827.22
2023-05-04T13:17:35.336Z,100788.28
2023-05-04T13:20:09.645Z,100771.50
2023-05-04T13:22:36.925Z,100756.31
2023-05-04T13:25:04.238Z,100765.97
2023-05-04T13:27:31.576Z,100781.53
2023-05-04T13:30:04.092Z,100783.75
2023-05-04T13:32:31.892Z,100769.00
2023-05-04T13:34:59.098Z,100785.22
2023-05-04T13:37:26.349Z,100828.22
2023-05-04T13:40:02.170Z,100856.31
2023-05-04T13:42:30.816Z,100859.38
2023-05-04T13:44:57.969Z,100833.75
2023-05-04T13:47:25.601Z,100815.75
2023-05-04T13:50:01.088Z,100830.69
2023-05-04T13:52:28.475Z,100808.97
2023-05-04T13:54:55.787Z,100808.16
2023-05-04T13:57:23.066Z,100830.09
2023-05-04T14:00:06.377Z,100838.91
2023-05-04T14:02:42.349Z,100823.34
2023-05-04T14:05:10.397Z,100807.97
2023-05-04T14:07:38.047Z,100798.53
2023-05-04T14:10:06.592Z,100783.75
2023-05-04T14:12:33.895Z,100787.88
2023-05-04T14:15:02.034Z,100786.44
2023-05-04T14:17:29.211Z,100774.75
2023-05-04T14:20:00.835Z,100777.63
2023-05-04T14:22:28.626Z,100794.44
2023-05-04T14:24:55.738Z,100795.03
2023-05-04T14:27:23.206Z,100803.25
2023-05-04T14:29:53.292Z,100806.50
2023-05-04T14:32:22.614Z,100812.66
2023-05-04T14:34:50.180Z,100827.25
2023-05-04T14:37:17.234Z,100833.16
2023-05-04T14:39:53.575Z,100836.88
2023-05-04T14:42:21.012Z,100842.19
2023-05-04T14:44:48.650Z,100839.13
2023-05-04T14:47:18.344Z,100826.03
2023-05-04T14:49:50.731Z,100829.09
2023-05-04T14:52:19.913Z,100834.19
2023-05-04T14:54:47.127Z,100820.88
2023-05-04T14:57:14.240Z,100813.75
2023-05-04T14:59:42.422Z,100815.78
2023-05-04T15:02:09.702Z,100813.31
2023-05-04T15:04:37.419Z,100818.63
2023-05-04T15:07:06.093Z,100817.03
2023-05-04T15:09:33.318Z,100814.72
2023-05-04T15:12:00.993Z,100808.81
2023-05-04T15:14:28.356Z,100821.75
2023-05-04T15:16:55.488Z,100814.78
2023-05-04T15:19:23.714Z,100810.22
2023-05-04T15:21:50.985Z,100811.69
2023-05-04T15:24:19.111Z,100814.75
2023-05-04T15:26:46.604Z,100806.78
2023-05-04T15:29:14.093Z,100803.47
2023-05-04T15:31:44.477Z,100803.69
2023-05-04T15:46:32.820Z,100801.50
2023-05-04T15:49:00.598Z,100801.94
2023-05-04T15:51:31.308Z,100802.97
2023-05-04T15:53:59.484Z,100795.41
2023-05-04T15:56:27.451Z,100786.38
2023-05-04T15:58:55.327Z,100790.91
2023-05-04T16:01:23.203Z,100795.63
2023-05-04T16:03:51.200Z,100785.13
2023-05-04T16:06:18.925Z,100790.91
2023-05-04T16:08:46.734Z,100789.69
2023-05-04T16:11:14.616Z,100787.84
2023-05-04T16:13:42.200Z,100782.28
2023-05-04T16:16:10.483Z,100773.69
2023-05-04T16:18:38.704Z,100779.22
2023-05-04T16:21:06.629Z,100778.63
2023-05-04T16:23:34.209Z,100781.50
2023-05-04T16:26:02.042Z,100779.84
2023-05-04T16:28:29.889Z,100784.38
2023-05-04T16:30:58.886Z,100780.06
2023-05-04T16:33:27.766Z,100779.03
2023-05-04T16:35:55.808Z,100778.19
2023-05-04T16:38:23.553Z,100777.56
2023-05-04T16:40:51.214Z,100775.28
2023-05-04T16:43:18.995Z,100769.69
2023-05-04T16:45:46.885Z,100774.19
2023-05-04T16:48:14.854Z,100769.25
2023-05-04T16:50:43.026Z,100771.72
2023-05-04T16:53:12.097Z,100771.88
2023-05-04T16:55:41.332Z,100769.63
2023-05-04T16:58:09.286Z,100762.88
2023-05-04T17:00:37.296Z,100768.78
2023-05-04T17:03:05.660Z,100763.84
2023-05-04T17:05:33.560Z,100767.13
2023-05-04T17:08:01.567Z,100763.81
2023-05-04T17:10:29.867Z,100772.22
2023-05-04T17:12:58.495Z,100766.47
2023-05-04T17:15:27.815Z,100767.22
2023-05-04T17:17:57.174Z,100771.13
2023-05-04T17:20:29.413Z,100770.88
2023-05-04T17:23:00.315Z,100763.69
2023-05-04T17:25:28.473Z,100764.31
2023-05-04T17:27:56.221Z,100765.72
2023-05-04T17:30:24.636Z,100770.69
2023-05-04T17:32:54.808Z,100767.19
2023-05-04T17:35:26.193Z,100772.16
2023-05-04T17:37:57.966Z,100772.34
2023-05-04T17:40:28.392Z,100769.50
2023-05-04T17:42:57.243Z,100770.53
2023-05-04T17:45:25.096Z,100779.16
2023-05-04T17:47:53.372Z,100775.22
2023-05-04T17:50:21.833Z,100779.13
2023-05-04T17:52:53.929Z,100776.47
2023-05-04T17:55:24.116Z,100777.50
2023-05-04T17:57:54.358Z,100785.72
2023-05-04T18:00:23.514Z,100792.53
2023-05-04T18:02:52.033Z,100789.22
2023-05-04T18:05:20.124Z,100791.31
2023-05-04T18:07:48.157Z,100789.06
2023-05-04T18:10:15.791Z,100790.31
2023-05-04T18:12:43.339Z,100790.31
2023-05-04T18:15:11.405Z,100787.84
2023-05-04T18:17:39.373Z,100794.44
2023-05-04T18:20:09.583Z,100790.34
2023-05-04T18:22:37.465Z,100789.13
2023-05-04T18:25:05.563Z,100789.16
2023-05-04T18:27:34.672Z,100793.69
2023-05-04T18:30:03.989Z,100805.19
2023-05-04T18:32:31.886Z,100803.56
2023-05-04T18:34:59.850Z,100807.06
2023-05-04T18:37:32.043Z,100810.34
2023-05-04T18:40:00.316Z,100811.81
2023-05-04T18:42:28.297Z,100811.22
2023-05-04T18:44:56.751Z,100822.09
2023-05-04T18:47:27.567Z,100820.88
2023-05-04T18:49:56.917Z,100824.38
2023-05-04T18:52:24.520Z,100832.75
2023-05-04T18:54:52.619Z,100826.22
2023-05-04T18:57:20.192Z,100838.75
2023-05-04T18:59:47.880Z,100840.38
2023-05-04T19:02:15.955Z,100844.69
2023-05-04T19:04:43.575Z,100839.75
2023-05-04T19:07:11.207Z,100837.72
2023-05-04T19:09:38.619Z,100834.25
2023-05-04T19:12:06.685Z,100851.00
2023-05-04T19:14:34.278Z,100848.97
2023-05-04T19:17:02.787Z,100850.59
2023-05-04T19:19:31.231Z,100855.91
2023-05-04T19:21:59.310Z,100847.72
2023-05-04T19:24:26.964Z,100856.72
2023-05-04T19:26:54.837Z,100849.75
2023-05-04T19:29:25.525Z,100847.91
2023-05-04T19:31:52.869Z,100853.63
2023-05-04T19:34:20.291Z,100864.06
2023-05-04T19:36:48.058Z,100859.34
2023-05-04T19:39:17.204Z,100861.59
2023-05-04T19:41:49.355Z,100857.88
2023-05-04T19:44:17.158Z,100868.94
2023-05-04T19:46:45.971Z,100868.72
2023-05-04T19:49:13.906Z,100867.44
2023-05-04T19:51:41.320Z,100866.03
2023-05-04T19:54:11.235Z,100872.56
2023-05-04T19:56:42.365Z,100876.25
2023-05-04T19:59:09.695Z,100873.38
2023-05-04T20:01:37.161Z,100886.69
2023-05-04T20:04:06.390Z,100887.69
2023-05-04T20:06:33.758Z,100894.03
2023-05-04T20:09:01.388Z,100894.63
2023-05-04T20:11:31.452Z,100891.75
2023-05-04T20:13:58.916Z,100889.47
2023-05-04T20:16:26.498Z,100881.88
2023-05-04T20:18:54.080Z,100895.34
2023-05-04T20:21:21.552Z,100890.59
2023-05-04T20:23:49.378Z,100896.16
2023-05-04T20:26:17.576Z,100904.13
2023-05-04T20:28:53.338Z,100899.81
2023-05-04T20:31:20.948Z,100899.19
2023-05-04T20:33:48.232Z,100908.00
2023-05-04T20:36:15.447Z,100901.84
2023-05-04T20:38:42.810Z,100901.84
2023-05-04T20:41:10.513Z,100905.72
2023-05-04T20:43:37.909Z,100898.94
2023-05-04T20:46:05.317Z,100896.50
2023-05-04T20:48:32.887Z,100906.31
2023-05-04T20:51:13.401Z,100903.03
2023-05-04T20:53:42.191Z,100900.53
2023-05-04T20:56:10.381Z,100902.16
2023-05-04T20:58:37.510Z,100888.00
2023-05-04T21:01:05.832Z,100897.19
2023-05-04T21:03:33.735Z,100895.75
2023-05-04T21:06:02.582Z,100902.25
2023-05-04T21:08:29.844Z,100895.69
2023-05-04T21:10:57.269Z,100893.44
2023-05-04T21:13:24.664Z,100896.47
2023-05-04T21:15:52.497Z,100896.03
2023-05-04T21:18:20.096Z,100905.41
2023-05-04T21:20:47.453Z,100901.09
2023-05-04T21:23:14.921Z,100914.78
2023-05-04T21:25:42.139Z,100909.25
2023-05-04T21:28:09.761Z,100908.25
2023-05-04T21:30:40.696Z,100906.59
2023-05-04T21:33:08.101Z,100912.75
2023-05-04T21:35:35.460Z,100918.06
2023-05-04T21:38:02.776Z,100918.28
2023-05-04T21:40:30.011Z,100907.00
2023-05-04T21:42:57.260Z,100909.03
2023-05-04T21:45:24.474Z,100902.69
2023-05-04T21:47:52.069Z,100905.53
2023-05-04T21:50:19.283Z,100905.09
2023-05-04T21:52:46.628Z,100899.19
2023-05-04T21:55:13.894Z,100896.06
2023-05-04T21:57:41.383Z,100895.22
2023-05-04T22:00:12.791Z,100905.03
2023-05-04T22:02:40.118Z,100896.88
2023-05-04T22:05:07.813Z,100891.56
2023-05-04T22:07:36.600Z,100885.63
2023-05-04T22:10:05.160Z,100888.47
2023-05-04T22:12:32.412Z,100890.69
2023-05-04T22:14:59.636Z,100882.91
2023-05-04T22:17:27.192Z,100888.41
2023-05-04T22:19:54.503Z,100892.91
2023-05-04T22:22:21.764Z,100893.56
2023-05-04T22:24:49.043Z,100884.09
2023-05-04T22:27:16.451Z,100886.34
2023-05-04T22:29:43.760Z,100877.09
2023-05-04T22:32:11.103Z,100887.28
2023-05-04T22:34:38.290Z,100895.88
2023-05-04T22:37:05.503Z,100893.22
2023-05-04T22:39:32.795Z,100894.44
2023-05-04T22:42:00.227Z,100890.97
2023-05-04T22:44:27.426Z,100898.94
2023-05-04T22:46:54.594Z,100905.06
2023-05-04T22:49:21.783Z,100905.88
2023-05-04T22:51:49.056Z,100910.41
2023-05-04T22:54:16.378Z,100906.22
2023-05-04T22:56:43.569Z,100902.94
2023-05-04T22:59:10.868Z,100907.25
2023-05-04T23:01:43.012Z,100915.59
2023-05-04T23:04:11.723Z,100918.44
2023-05-04T23:06:39.456Z,100908.19
2023-05-04T23:09:06.815Z,100912.03
2023-05-04T23:11:34.038Z,100906.94
2023-05-04T23:14:01.423Z,100908.78
2023-05-04T23:16:28.668Z,100903.47
2023-05-04T23:18:56.215Z,100908.94
2023-05-04T23:21:23.407Z,100910.34
2023-05-04T23:23:52.359Z,100911.53
2023-05-04T23:26:19.629Z,100912.09
2023-05-04T23:28:46.861Z,100918.41
2023-05-04T23:31:14.082Z,100920.44
2023-05-04T23:33:42.095Z,100920.81
2023-05-04T23:36:09.410Z,100921.38
2023-05-04T23:38:36.869Z,100928.50
2023-05-04T23:41:04.680Z,100933.22
2023-05-04T23:43:32.292Z,100931.94
2023-05-04T23:46:01.458Z,100934.78
2023-05-04T23:48:29.799Z,100944.38
2023-05-04T23:50:59.091Z,100940.09
2023-05-04T23:53:26.633Z,100944.56
2023-05-04T23:56:01.938Z,100942.47
2023-05-04T23:58:31.797Z,100945.13
